sensor_id;sensor_type;location;lat;lon;timestamp;temperature;humidity
30678;DHT22;17437;47.188;8.896;2023-02-07T00:00:28;-0.90;99.90
30678;DHT22;17437;47.188;8.896;2023-02-07T00:02:59;-0.60;99.90
30678;DHT22;17437;47.188;8.896;2023-02-07T00:05:31;-0.50;99.90
30678;DHT22;17437;47.188;8.896;2023-02-07T00:08:02;-0.40;99.90
30678;DHT22;17437;47.188;8.896;2023-02-07T00:10:34;-0.30;99.90
30678;DHT22;17437;47.188;8.896;2023-02-07T00:13:06;-0.20;99.90
30678;DHT22;17437;47.188;8.896;2023-02-07T00:15:37;-0.20;99.90
30678;DHT22;17437;47.188;8.896;2023-02-07T00:18:09;-0.20;99.90
30678;DHT22;17437;47.188;8.896;2023-02-07T00:20:40;-0.30;99.90
30678;DHT22;17437;47.188;8.896;2023-02-07T00:23:12;-0.40;99.90
30678;DHT22;17437;47.188;8.896;2023-02-07T00:25:46;-0.50;99.90
30678;DHT22;17437;47.188;8.896;2023-02-07T00:28:17;-0.60;99.90
30678;DHT22;17437;47.188;8.896;2023-02-07T00:30:49;-0.70;99.90
30678;DHT22;17437;47.188;8.896;2023-02-07T00:33:21;-0.80;99.90
30678;DHT22;17437;47.188;8.896;2023-02-07T00:35:57;-0.90;99.90
30678;DHT22;17437;47.188;8.896;2023-02-07T00:38:29;-1.00;99.90
30678;DHT22;17437;47.188;8.896;2023-02-07T00:41:01;-1.10;99.90
30678;DHT22;17437;47.188;8.896;2023-02-07T00:43:33;-1.20;99.90
30678;DHT22;17437;47.188;8.896;2023-02-07T00:46:06;-1.20;99.90
30678;DHT22;17437;47.188;8.896;2023-02-07T00:48:38;-1.20;99.90
30678;DHT22;17437;47.188;8.896;2023-02-07T00:51:11;-1.20;99.90
30678;DHT22;17437;47.188;8.896;2023-02-07T00:53:43;-1.10;99.90
30678;DHT22;17437;47.188;8.896;2023-02-07T00:56:16;-0.90;99.90
30678;DHT22;17437;47.188;8.896;2023-02-07T00:58:47;-1.00;99.90
30678;DHT22;17437;47.188;8.896;2023-02-07T01:01:22;-1.00;99.90
30678;DHT22;17437;47.188;8.896;2023-02-07T01:03:54;-0.90;99.90
30678;DHT22;17437;47.188;8.896;2023-02-07T01:06:26;-0.80;99.90
30678;DHT22;17437;47.188;8.896;2023-02-07T01:09:01;-0.70;99.90
30678;DHT22;17437;47.188;8.896;2023-02-07T01:11:33;-0.50;99.90
30678;DHT22;17437;47.188;8.896;2023-02-07T01:17:00;-0.40;99.90
30678;DHT22;17437;47.188;8.896;2023-02-07T01:19:31;-0.30;99.90
30678;DHT22;17437;47.188;8.896;2023-02-07T01:22:03;-0.30;99.90
30678;DHT22;17437;47.188;8.896;2023-02-07T01:24:35;-0.10;99.90
30678;DHT22;17437;47.188;8.896;2023-02-07T01:27:08;-0.10;99.90
30678;DHT22;17437;47.188;8.896;2023-02-07T01:29:41;-0.10;99.90
30678;DHT22;17437;47.188;8.896;2023-02-07T01:32:12;-0.10;99.90
30678;DHT22;17437;47.188;8.896;2023-02-07T01:34:44;-0.10;99.90
30678;DHT22;17437;47.188;8.896;2023-02-07T01:37:16;-0.10;99.90
30678;DHT22;17437;47.188;8.896;2023-02-07T01:39:47;0.00;99.90
30678;DHT22;17437;47.188;8.896;2023-02-07T01:42:19;0.10;99.90
30678;DHT22;17437;47.188;8.896;2023-02-07T01:45:17;0.00;99.90
30678;DHT22;17437;47.188;8.896;2023-02-07T01:47:49;0.00;99.90
30678;DHT22;17437;47.188;8.896;2023-02-07T01:50:23;-0.10;99.90
30678;DHT22;17437;47.188;8.896;2023-02-07T01:52:55;0.00;99.90
30678;DHT22;17437;47.188;8.896;2023-02-07T01:55:31;0.00;99.90
30678;DHT22;17437;47.188;8.896;2023-02-07T01:58:04;0.10;99.90
30678;DHT22;17437;47.188;8.896;2023-02-07T02:00:37;0.10;99.90
30678;DHT22;17437;47.188;8.896;2023-02-07T02:03:09;0.00;99.90
30678;DHT22;17437;47.188;8.896;2023-02-07T02:05:42;0.10;99.90
30678;DHT22;17437;47.188;8.896;2023-02-07T02:08:14;0.00;99.90
30678;DHT22;17437;47.188;8.896;2023-02-07T02:11:04;-0.10;99.90
30678;DHT22;17437;47.188;8.896;2023-02-07T02:13:39;-0.10;99.90
30678;DHT22;17437;47.188;8.896;2023-02-07T02:16:15;-0.10;99.90
30678;DHT22;17437;47.188;8.896;2023-02-07T02:18:57;0.00;99.90
30678;DHT22;17437;47.188;8.896;2023-02-07T02:21:50;0.00;99.90
30678;DHT22;17437;47.188;8.896;2023-02-07T02:27:42;0.00;99.90
30678;DHT22;17437;47.188;8.896;2023-02-07T02:30:38;-0.10;99.90
30678;DHT22;17437;47.188;8.896;2023-02-07T02:33:26;-0.10;99.90
30678;DHT22;17437;47.188;8.896;2023-02-07T02:36:05;-0.30;99.90
30678;DHT22;17437;47.188;8.896;2023-02-07T02:38:41;-0.30;99.90
30678;DHT22;17437;47.188;8.896;2023-02-07T02:41:14;-0.30;99.90
30678;DHT22;17437;47.188;8.896;2023-02-07T02:43:49;-0.40;99.90
30678;DHT22;17437;47.188;8.896;2023-02-07T02:46:24;-0.50;99.90
30678;DHT22;17437;47.188;8.896;2023-02-07T02:48:57;-0.50;99.90
30678;DHT22;17437;47.188;8.896;2023-02-07T02:51:30;-0.50;99.90
30678;DHT22;17437;47.188;8.896;2023-02-07T02:54:03;-0.50;99.90
30678;DHT22;17437;47.188;8.896;2023-02-07T02:56:52;-0.40;99.90
30678;DHT22;17437;47.188;8.896;2023-02-07T02:59:35;-0.40;99.90
30678;DHT22;17437;47.188;8.896;2023-02-07T03:02:13;-0.40;99.90
30678;DHT22;17437;47.188;8.896;2023-02-07T03:05:17;-0.50;99.90
30678;DHT22;17437;47.188;8.896;2023-02-07T03:07:55;-0.50;99.90
30678;DHT22;17437;47.188;8.896;2023-02-07T03:10:34;-0.60;99.90
30678;DHT22;17437;47.188;8.896;2023-02-07T03:13:08;-0.70;99.90
30678;DHT22;17437;47.188;8.896;2023-02-07T03:15:46;-0.70;99.90
30678;DHT22;17437;47.188;8.896;2023-02-07T03:18:21;-0.80;99.90
30678;DHT22;17437;47.188;8.896;2023-02-07T03:20:55;-0.70;99.90
30678;DHT22;17437;47.188;8.896;2023-02-07T03:23:30;-0.60;99.90
30678;DHT22;17437;47.188;8.896;2023-02-07T03:26:03;-0.50;99.90
30678;DHT22;17437;47.188;8.896;2023-02-07T03:28:37;-0.40;99.90
30678;DHT22;17437;47.188;8.896;2023-02-07T03:31:12;-0.40;99.90
30678;DHT22;17437;47.188;8.896;2023-02-07T03:33:47;-0.30;99.90
30678;DHT22;17437;47.188;8.896;2023-02-07T03:36:22;-0.20;99.90
30678;DHT22;17437;47.188;8.896;2023-02-07T03:38:54;-0.20;99.90
30678;DHT22;17437;47.188;8.896;2023-02-07T03:41:30;-0.20;99.90
30678;DHT22;17437;47.188;8.896;2023-02-07T03:44:03;-0.20;99.90
30678;DHT22;17437;47.188;8.896;2023-02-07T03:46:37;0.00;99.90
30678;DHT22;17437;47.188;8.896;2023-02-07T03:49:09;0.00;99.90
30678;DHT22;17437;47.188;8.896;2023-02-07T03:51:41;0.00;99.90
30678;DHT22;17437;47.188;8.896;2023-02-07T03:54:13;0.10;99.90
30678;DHT22;17437;47.188;8.896;2023-02-07T03:56:45;0.20;99.90
30678;DHT22;17437;47.188;8.896;2023-02-07T03:59:16;0.20;99.90
30678;DHT22;17437;47.188;8.896;2023-02-07T04:01:47;0.20;99.90
30678;DHT22;17437;47.188;8.896;2023-02-07T04:04:19;0.20;99.90
30678;DHT22;17437;47.188;8.896;2023-02-07T04:06:51;0.20;99.90
30678;DHT22;17437;47.188;8.896;2023-02-07T04:09:22;0.10;99.90
30678;DHT22;17437;47.188;8.896;2023-02-07T04:11:54;0.20;99.90
30678;DHT22;17437;47.188;8.896;2023-02-07T04:14:26;0.20;99.90
30678;DHT22;17437;47.188;8.896;2023-02-07T04:16:57;0.10;99.90
30678;DHT22;17437;47.188;8.896;2023-02-07T04:19:29;0.10;99.90
30678;DHT22;17437;47.188;8.896;2023-02-07T04:22:00;0.10;99.90
30678;DHT22;17437;47.188;8.896;2023-02-07T04:24:32;0.00;99.90
30678;DHT22;17437;47.188;8.896;2023-02-07T04:27:05;-0.20;99.90
30678;DHT22;17437;47.188;8.896;2023-02-07T04:29:37;-0.30;99.90
30678;DHT22;17437;47.188;8.896;2023-02-07T04:32:08;-0.50;99.90
30678;DHT22;17437;47.188;8.896;2023-02-07T04:34:40;-0.60;99.90
30678;DHT22;17437;47.188;8.896;2023-02-07T04:37:11;-0.80;99.90
30678;DHT22;17437;47.188;8.896;2023-02-07T04:39:43;-0.90;99.90
30678;DHT22;17437;47.188;8.896;2023-02-07T04:42:16;-1.10;99.90
30678;DHT22;17437;47.188;8.896;2023-02-07T04:44:48;-1.20;99.90
30678;DHT22;17437;47.188;8.896;2023-02-07T04:47:19;-1.20;99.90
30678;DHT22;17437;47.188;8.896;2023-02-07T04:49:51;-1.40;99.90
30678;DHT22;17437;47.188;8.896;2023-02-07T04:52:23;-1.40;99.90
30678;DHT22;17437;47.188;8.896;2023-02-07T04:54:54;-1.40;99.90
30678;DHT22;17437;47.188;8.896;2023-02-07T04:57:26;-1.50;99.90
30678;DHT22;17437;47.188;8.896;2023-02-07T04:59:58;-1.50;99.90
30678;DHT22;17437;47.188;8.896;2023-02-07T05:02:29;-1.50;99.90
30678;DHT22;17437;47.188;8.896;2023-02-07T05:05:01;-1.60;99.90
30678;DHT22;17437;47.188;8.896;2023-02-07T05:07:33;-1.70;99.90
30678;DHT22;17437;47.188;8.896;2023-02-07T05:10:05;-1.80;99.90
30678;DHT22;17437;47.188;8.896;2023-02-07T05:12:38;-1.80;99.90
30678;DHT22;17437;47.188;8.896;2023-02-07T05:15:13;-1.80;99.90
30678;DHT22;17437;47.188;8.896;2023-02-07T05:17:45;-1.80;99.90
30678;DHT22;17437;47.188;8.896;2023-02-07T05:20:26;-1.70;99.90
30678;DHT22;17437;47.188;8.896;2023-02-07T05:22:58;-1.80;99.90
30678;DHT22;17437;47.188;8.896;2023-02-07T05:25:30;-1.90;99.90
30678;DHT22;17437;47.188;8.896;2023-02-07T05:28:01;-1.90;99.90
30678;DHT22;17437;47.188;8.896;2023-02-07T05:30:38;-1.80;99.90
30678;DHT22;17437;47.188;8.896;2023-02-07T05:33:14;-1.70;99.90
30678;DHT22;17437;47.188;8.896;2023-02-07T05:35:45;-1.60;99.90
30678;DHT22;17437;47.188;8.896;2023-02-07T05:38:19;-1.60;99.90
30678;DHT22;17437;47.188;8.896;2023-02-07T05:40:51;-1.60;99.90
30678;DHT22;17437;47.188;8.896;2023-02-07T05:43:22;-1.70;99.90
30678;DHT22;17437;47.188;8.896;2023-02-07T05:45:56;-1.60;99.90
30678;DHT22;17437;47.188;8.896;2023-02-07T05:48:27;-1.60;99.90
30678;DHT22;17437;47.188;8.896;2023-02-07T05:50:59;-1.70;99.90
30678;DHT22;17437;47.188;8.896;2023-02-07T05:53:30;-1.80;99.90
30678;DHT22;17437;47.188;8.896;2023-02-07T05:56:02;-1.90;99.90
30678;DHT22;17437;47.188;8.896;2023-02-07T05:58:34;-1.90;99.90
30678;DHT22;17437;47.188;8.896;2023-02-07T06:01:06;-2.00;99.90
30678;DHT22;17437;47.188;8.896;2023-02-07T06:03:38;-2.00;99.90
30678;DHT22;17437;47.188;8.896;2023-02-07T06:06:09;-2.00;99.90
30678;DHT22;17437;47.188;8.896;2023-02-07T06:08:41;-2.10;99.90
30678;DHT22;17437;47.188;8.896;2023-02-07T06:11:14;-2.10;99.90
30678;DHT22;17437;47.188;8.896;2023-02-07T06:13:45;-2.20;99.90
30678;DHT22;17437;47.188;8.896;2023-02-07T06:16:17;-2.10;99.90
30678;DHT22;17437;47.188;8.896;2023-02-07T06:18:49;-2.10;99.90
30678;DHT22;17437;47.188;8.896;2023-02-07T06:21:21;-2.10;99.90
30678;DHT22;17437;47.188;8.896;2023-02-07T06:23:52;-2.10;99.90
30678;DHT22;17437;47.188;8.896;2023-02-07T06:26:24;-2.20;99.90
30678;DHT22;17437;47.188;8.896;2023-02-07T06:28:55;-2.20;99.90
30678;DHT22;17437;47.188;8.896;2023-02-07T06:31:27;-2.30;99.90
30678;DHT22;17437;47.188;8.896;2023-02-07T06:33:59;-2.40;99.90
30678;DHT22;17437;47.188;8.896;2023-02-07T06:36:31;-2.50;99.90
30678;DHT22;17437;47.188;8.896;2023-02-07T06:39:03;-2.60;99.90
30678;DHT22;17437;47.188;8.896;2023-02-07T06:41:35;-2.60;99.90
30678;DHT22;17437;47.188;8.896;2023-02-07T06:44:07;-2.60;99.90
30678;DHT22;17437;47.188;8.896;2023-02-07T06:46:38;-2.60;99.90
30678;DHT22;17437;47.188;8.896;2023-02-07T06:49:11;-2.60;99.90
30678;DHT22;17437;47.188;8.896;2023-02-07T06:51:42;-2.50;99.90
30678;DHT22;17437;47.188;8.896;2023-02-07T06:54:14;-2.50;99.90
30678;DHT22;17437;47.188;8.896;2023-02-07T06:56:45;-2.60;99.90
30678;DHT22;17437;47.188;8.896;2023-02-07T06:59:17;-2.50;99.90
30678;DHT22;17437;47.188;8.896;2023-02-07T07:01:49;-2.50;99.90
30678;DHT22;17437;47.188;8.896;2023-02-07T07:04:21;-2.50;99.90
30678;DHT22;17437;47.188;8.896;2023-02-07T07:06:53;-2.50;99.90
30678;DHT22;17437;47.188;8.896;2023-02-07T07:09:25;-2.50;99.90
30678;DHT22;17437;47.188;8.896;2023-02-07T07:11:56;-2.50;99.90
30678;DHT22;17437;47.188;8.896;2023-02-07T07:14:28;-2.40;99.90
30678;DHT22;17437;47.188;8.896;2023-02-07T07:17:00;-2.50;99.90
30678;DHT22;17437;47.188;8.896;2023-02-07T07:19:49;-2.40;99.90
30678;DHT22;17437;47.188;8.896;2023-02-07T07:22:20;-2.40;99.90
30678;DHT22;17437;47.188;8.896;2023-02-07T07:24:52;-2.30;99.90
30678;DHT22;17437;47.188;8.896;2023-02-07T07:27:24;-2.30;99.90
30678;DHT22;17437;47.188;8.896;2023-02-07T07:29:55;-2.20;99.90
30678;DHT22;17437;47.188;8.896;2023-02-07T07:32:27;-2.10;99.90
30678;DHT22;17437;47.188;8.896;2023-02-07T07:35:04;-2.10;99.90
30678;DHT22;17437;47.188;8.896;2023-02-07T07:37:36;-2.00;99.90
30678;DHT22;17437;47.188;8.896;2023-02-07T07:40:10;-1.90;99.90
30678;DHT22;17437;47.188;8.896;2023-02-07T07:42:44;-1.90;99.90
30678;DHT22;17437;47.188;8.896;2023-02-07T07:45:17;-1.80;99.90
30678;DHT22;17437;47.188;8.896;2023-02-07T07:47:50;-1.70;99.90
30678;DHT22;17437;47.188;8.896;2023-02-07T07:50:23;-1.60;99.90
30678;DHT22;17437;47.188;8.896;2023-02-07T07:52:54;-1.40;99.90
30678;DHT22;17437;47.188;8.896;2023-02-07T07:55:26;-1.30;99.90
30678;DHT22;17437;47.188;8.896;2023-02-07T07:57:57;-1.30;99.90
30678;DHT22;17437;47.188;8.896;2023-02-07T08:00:29;-1.30;99.90
30678;DHT22;17437;47.188;8.896;2023-02-07T08:03:00;-1.10;99.90
30678;DHT22;17437;47.188;8.896;2023-02-07T08:05:32;-1.00;99.90
30678;DHT22;17437;47.188;8.896;2023-02-07T08:08:02;-1.00;99.90
30678;DHT22;17437;47.188;8.896;2023-02-07T08:10:34;-1.00;99.90
30678;DHT22;17437;47.188;8.896;2023-02-07T08:13:08;-0.80;99.90
30678;DHT22;17437;47.188;8.896;2023-02-07T08:15:39;-0.80;99.90
30678;DHT22;17437;47.188;8.896;2023-02-07T08:18:11;-0.70;99.90
30678;DHT22;17437;47.188;8.896;2023-02-07T08:20:43;-0.60;99.90
30678;DHT22;17437;47.188;8.896;2023-02-07T08:23:14;-0.50;99.90
30678;DHT22;17437;47.188;8.896;2023-02-07T08:25:46;-0.30;99.90
30678;DHT22;17437;47.188;8.896;2023-02-07T08:28:19;-0.20;99.90
30678;DHT22;17437;47.188;8.896;2023-02-07T08:30:51;-0.20;99.90
30678;DHT22;17437;47.188;8.896;2023-02-07T08:33:22;-0.20;99.90
30678;DHT22;17437;47.188;8.896;2023-02-07T08:35:54;0.00;99.90
30678;DHT22;17437;47.188;8.896;2023-02-07T08:38:26;0.10;99.90
30678;DHT22;17437;47.188;8.896;2023-02-07T08:40:57;0.10;99.90
30678;DHT22;17437;47.188;8.896;2023-02-07T08:43:30;0.20;99.90
30678;DHT22;17437;47.188;8.896;2023-02-07T08:46:01;0.40;99.90
30678;DHT22;17437;47.188;8.896;2023-02-07T08:48:34;0.40;99.90
30678;DHT22;17437;47.188;8.896;2023-02-07T08:51:07;0.50;99.90
30678;DHT22;17437;47.188;8.896;2023-02-07T08:53:39;0.70;99.90
30678;DHT22;17437;47.188;8.896;2023-02-07T08:56:11;0.70;99.90
30678;DHT22;17437;47.188;8.896;2023-02-07T08:58:42;0.70;99.90
30678;DHT22;17437;47.188;8.896;2023-02-07T09:01:14;0.80;99.90
30678;DHT22;17437;47.188;8.896;2023-02-07T09:03:46;0.90;99.90
30678;DHT22;17437;47.188;8.896;2023-02-07T09:06:18;0.90;99.90
30678;DHT22;17437;47.188;8.896;2023-02-07T09:08:49;0.90;99.90
30678;DHT22;17437;47.188;8.896;2023-02-07T09:11:21;1.00;99.90
30678;DHT22;17437;47.188;8.896;2023-02-07T09:13:52;1.00;99.90
30678;DHT22;17437;47.188;8.896;2023-02-07T09:16:24;1.00;99.90
30678;DHT22;17437;47.188;8.896;2023-02-07T09:18:56;1.10;99.90
30678;DHT22;17437;47.188;8.896;2023-02-07T09:21:27;1.10;99.90
30678;DHT22;17437;47.188;8.896;2023-02-07T09:24:02;1.20;99.90
30678;DHT22;17437;47.188;8.896;2023-02-07T09:26:34;1.30;99.90
30678;DHT22;17437;47.188;8.896;2023-02-07T09:29:09;1.30;99.90
30678;DHT22;17437;47.188;8.896;2023-02-07T09:31:42;1.30;99.90
30678;DHT22;17437;47.188;8.896;2023-02-07T09:34:14;1.30;99.90
30678;DHT22;17437;47.188;8.896;2023-02-07T09:36:45;1.40;99.90
30678;DHT22;17437;47.188;8.896;2023-02-07T09:39:19;1.40;99.90
30678;DHT22;17437;47.188;8.896;2023-02-07T09:41:56;1.40;99.90
30678;DHT22;17437;47.188;8.896;2023-02-07T09:44:34;1.30;99.90
30678;DHT22;17437;47.188;8.896;2023-02-07T09:47:08;1.40;99.90
30678;DHT22;17437;47.188;8.896;2023-02-07T09:49:43;1.50;99.90
30678;DHT22;17437;47.188;8.896;2023-02-07T09:52:19;1.60;99.90
30678;DHT22;17437;47.188;8.896;2023-02-07T09:54:53;1.60;99.90
30678;DHT22;17437;47.188;8.896;2023-02-07T09:57:28;1.60;99.90
30678;DHT22;17437;47.188;8.896;2023-02-07T10:00:05;1.60;99.90
30678;DHT22;17437;47.188;8.896;2023-02-07T10:02:50;1.60;99.90
30678;DHT22;17437;47.188;8.896;2023-02-07T10:05:26;1.60;99.90
30678;DHT22;17437;47.188;8.896;2023-02-07T10:07:58;1.70;99.90
30678;DHT22;17437;47.188;8.896;2023-02-07T10:10:35;1.70;99.90
30678;DHT22;17437;47.188;8.896;2023-02-07T10:13:26;1.80;99.90
30678;DHT22;17437;47.188;8.896;2023-02-07T10:16:10;1.70;99.90
30678;DHT22;17437;47.188;8.896;2023-02-07T10:18:45;1.80;99.90
30678;DHT22;17437;47.188;8.896;2023-02-07T10:21:24;1.70;99.90
30678;DHT22;17437;47.188;8.896;2023-02-07T10:24:07;1.80;99.90
30678;DHT22;17437;47.188;8.896;2023-02-07T10:26:39;1.70;99.90
30678;DHT22;17437;47.188;8.896;2023-02-07T10:29:23;1.70;99.90
30678;DHT22;17437;47.188;8.896;2023-02-07T10:31:58;1.90;99.90
30678;DHT22;17437;47.188;8.896;2023-02-07T10:34:34;1.90;99.90
30678;DHT22;17437;47.188;8.896;2023-02-07T10:37:15;2.00;99.90
30678;DHT22;17437;47.188;8.896;2023-02-07T10:39:52;2.10;99.90
30678;DHT22;17437;47.188;8.896;2023-02-07T10:42:26;2.20;99.90
30678;DHT22;17437;47.188;8.896;2023-02-07T10:44:59;2.20;99.90
30678;DHT22;17437;47.188;8.896;2023-02-07T10:47:29;2.20;99.90
30678;DHT22;17437;47.188;8.896;2023-02-07T10:50:06;2.30;99.90
30678;DHT22;17437;47.188;8.896;2023-02-07T10:52:42;2.40;99.90
30678;DHT22;17437;47.188;8.896;2023-02-07T10:55:17;2.40;99.90
30678;DHT22;17437;47.188;8.896;2023-02-07T10:57:56;2.40;99.90
30678;DHT22;17437;47.188;8.896;2023-02-07T11:00:31;2.40;99.90
30678;DHT22;17437;47.188;8.896;2023-02-07T11:03:05;2.60;99.90
30678;DHT22;17437;47.188;8.896;2023-02-07T11:05:40;2.60;99.90
30678;DHT22;17437;47.188;8.896;2023-02-07T11:08:20;2.60;99.90
30678;DHT22;17437;47.188;8.896;2023-02-07T11:10:53;2.60;99.90
30678;DHT22;17437;47.188;8.896;2023-02-07T11:13:27;2.70;99.90
30678;DHT22;17437;47.188;8.896;2023-02-07T11:16:00;2.70;99.90
30678;DHT22;17437;47.188;8.896;2023-02-07T11:18:39;2.80;99.90
30678;DHT22;17437;47.188;8.896;2023-02-07T11:24:03;2.80;99.90
30678;DHT22;17437;47.188;8.896;2023-02-07T11:29:16;2.80;99.90
30678;DHT22;17437;47.188;8.896;2023-02-07T11:31:49;2.90;99.90
30678;DHT22;17437;47.188;8.896;2023-02-07T11:37:26;2.90;99.90
30678;DHT22;17437;47.188;8.896;2023-02-07T11:40:22;3.00;99.90
30678;DHT22;17437;47.188;8.896;2023-02-07T11:43:00;3.10;99.90
30678;DHT22;17437;47.188;8.896;2023-02-07T11:45:34;3.10;99.90
30678;DHT22;17437;47.188;8.896;2023-02-07T11:48:24;3.10;99.90
30678;DHT22;17437;47.188;8.896;2023-02-07T11:50:59;3.20;99.90
30678;DHT22;17437;47.188;8.896;2023-02-07T11:53:35;3.20;99.90
30678;DHT22;17437;47.188;8.896;2023-02-07T11:56:20;3.20;99.90
30678;DHT22;17437;47.188;8.896;2023-02-07T11:58:54;3.20;99.90
30678;DHT22;17437;47.188;8.896;2023-02-07T12:01:28;3.10;99.90
30678;DHT22;17437;47.188;8.896;2023-02-07T12:04:07;3.10;99.90
30678;DHT22;17437;47.188;8.896;2023-02-07T12:06:42;3.20;99.90
30678;DHT22;17437;47.188;8.896;2023-02-07T12:09:23;3.30;99.90
30678;DHT22;17437;47.188;8.896;2023-02-07T12:11:58;3.30;99.90
30678;DHT22;17437;47.188;8.896;2023-02-07T12:14:34;3.30;99.90
30678;DHT22;17437;47.188;8.896;2023-02-07T12:17:11;3.20;99.90
30678;DHT22;17437;47.188;8.896;2023-02-07T12:19:48;3.20;99.90
30678;DHT22;17437;47.188;8.896;2023-02-07T12:22:22;3.20;99.90
30678;DHT22;17437;47.188;8.896;2023-02-07T12:24:56;3.20;99.90
30678;DHT22;17437;47.188;8.896;2023-02-07T12:27:33;3.40;99.90
30678;DHT22;17437;47.188;8.896;2023-02-07T12:30:09;3.30;99.90
30678;DHT22;17437;47.188;8.896;2023-02-07T12:32:45;3.40;99.90
30678;DHT22;17437;47.188;8.896;2023-02-07T12:35:21;3.40;99.90
30678;DHT22;17437;47.188;8.896;2023-02-07T12:37:58;3.40;99.90
30678;DHT22;17437;47.188;8.896;2023-02-07T12:40:36;3.30;99.90
30678;DHT22;17437;47.188;8.896;2023-02-07T12:43:09;3.30;99.90
30678;DHT22;17437;47.188;8.896;2023-02-07T12:45:51;3.30;99.90
30678;DHT22;17437;47.188;8.896;2023-02-07T12:48:28;3.20;99.90
30678;DHT22;17437;47.188;8.896;2023-02-07T12:51:09;3.20;99.90
30678;DHT22;17437;47.188;8.896;2023-02-07T12:53:51;3.10;99.90
30678;DHT22;17437;47.188;8.896;2023-02-07T12:56:31;3.30;99.90
30678;DHT22;17437;47.188;8.896;2023-02-07T12:59:08;3.50;99.90
30678;DHT22;17437;47.188;8.896;2023-02-07T13:01:43;3.40;99.90
30678;DHT22;17437;47.188;8.896;2023-02-07T13:04:27;3.40;99.90
30678;DHT22;17437;47.188;8.896;2023-02-07T13:07:05;3.20;99.90
30678;DHT22;17437;47.188;8.896;2023-02-07T13:09:40;3.20;99.90
30678;DHT22;17437;47.188;8.896;2023-02-07T13:12:15;3.20;99.90
30678;DHT22;17437;47.188;8.896;2023-02-07T13:14:58;3.40;99.90
30678;DHT22;17437;47.188;8.896;2023-02-07T13:17:42;3.40;99.90
30678;DHT22;17437;47.188;8.896;2023-02-07T13:20:21;3.50;99.90
30678;DHT22;17437;47.188;8.896;2023-02-07T13:22:56;3.60;99.90
30678;DHT22;17437;47.188;8.896;2023-02-07T13:25:32;3.60;99.90
30678;DHT22;17437;47.188;8.896;2023-02-07T13:28:10;3.60;99.90
30678;DHT22;17437;47.188;8.896;2023-02-07T13:30:41;3.50;99.90
30678;DHT22;17437;47.188;8.896;2023-02-07T13:33:25;3.60;99.90
30678;DHT22;17437;47.188;8.896;2023-02-07T13:36:01;3.70;99.90
30678;DHT22;17437;47.188;8.896;2023-02-07T13:38:39;3.80;99.90
30678;DHT22;17437;47.188;8.896;2023-02-07T13:41:16;3.80;99.90
30678;DHT22;17437;47.188;8.896;2023-02-07T13:43:57;3.90;99.90
30678;DHT22;17437;47.188;8.896;2023-02-07T13:49:35;3.80;99.90
30678;DHT22;17437;47.188;8.896;2023-02-07T13:52:12;3.80;99.90
30678;DHT22;17437;47.188;8.896;2023-02-07T13:54:49;3.90;99.90
30678;DHT22;17437;47.188;8.896;2023-02-07T13:57:37;3.80;99.90
30678;DHT22;17437;47.188;8.896;2023-02-07T14:00:23;3.70;99.90
30678;DHT22;17437;47.188;8.896;2023-02-07T14:02:59;3.70;99.90
30678;DHT22;17437;47.188;8.896;2023-02-07T14:05:33;3.70;99.90
30678;DHT22;17437;47.188;8.896;2023-02-07T14:08:19;3.70;99.90
30678;DHT22;17437;47.188;8.896;2023-02-07T14:10:51;3.90;99.90
30678;DHT22;17437;47.188;8.896;2023-02-07T14:13:30;3.90;99.90
30678;DHT22;17437;47.188;8.896;2023-02-07T14:16:06;3.90;99.90
30678;DHT22;17437;47.188;8.896;2023-02-07T14:18:41;3.90;99.90
30678;DHT22;17437;47.188;8.896;2023-02-07T14:27:40;4.00;99.90
30678;DHT22;17437;47.188;8.896;2023-02-07T14:30:27;3.90;99.90
30678;DHT22;17437;47.188;8.896;2023-02-07T14:33:18;3.80;99.90
30678;DHT22;17437;47.188;8.896;2023-02-07T14:36:06;3.70;99.90
30678;DHT22;17437;47.188;8.896;2023-02-07T14:38:40;3.70;99.90
30678;DHT22;17437;47.188;8.896;2023-02-07T14:41:16;3.70;99.90
30678;DHT22;17437;47.188;8.896;2023-02-07T14:43:51;3.80;99.90
30678;DHT22;17437;47.188;8.896;2023-02-07T14:46:28;3.80;99.90
30678;DHT22;17437;47.188;8.896;2023-02-07T14:49:06;3.80;99.90
30678;DHT22;17437;47.188;8.896;2023-02-07T14:51:42;3.90;99.90
30678;DHT22;17437;47.188;8.896;2023-02-07T14:54:18;4.00;99.90
30678;DHT22;17437;47.188;8.896;2023-02-07T14:56:58;4.00;99.90
30678;DHT22;17437;47.188;8.896;2023-02-07T14:59:32;4.00;99.90
30678;DHT22;17437;47.188;8.896;2023-02-07T15:02:27;4.00;99.90
30678;DHT22;17437;47.188;8.896;2023-02-07T15:05:17;4.00;99.90
30678;DHT22;17437;47.188;8.896;2023-02-07T15:07:55;4.00;99.90
30678;DHT22;17437;47.188;8.896;2023-02-07T15:10:30;4.10;99.90
30678;DHT22;17437;47.188;8.896;2023-02-07T15:13:06;4.00;99.90
30678;DHT22;17437;47.188;8.896;2023-02-07T15:15:46;4.00;99.90
30678;DHT22;17437;47.188;8.896;2023-02-07T15:18:19;4.00;99.90
30678;DHT22;17437;47.188;8.896;2023-02-07T15:20:54;3.90;99.90
30678;DHT22;17437;47.188;8.896;2023-02-07T15:23:29;3.80;99.90
30678;DHT22;17437;47.188;8.896;2023-02-07T15:29:01;3.70;99.90
30678;DHT22;17437;47.188;8.896;2023-02-07T15:31:39;3.50;99.90
30678;DHT22;17437;47.188;8.896;2023-02-07T15:34:15;3.40;99.90
30678;DHT22;17437;47.188;8.896;2023-02-07T15:37:12;3.30;99.90
30678;DHT22;17437;47.188;8.896;2023-02-07T15:39:44;3.30;99.90
30678;DHT22;17437;47.188;8.896;2023-02-07T15:42:19;3.40;99.90
30678;DHT22;17437;47.188;8.896;2023-02-07T15:44:52;3.30;99.90
30678;DHT22;17437;47.188;8.896;2023-02-07T15:47:34;3.20;99.90
30678;DHT22;17437;47.188;8.896;2023-02-07T15:50:20;3.10;99.90
30678;DHT22;17437;47.188;8.896;2023-02-07T15:52:54;3.00;99.90
30678;DHT22;17437;47.188;8.896;2023-02-07T15:55:30;2.80;99.90
30678;DHT22;17437;47.188;8.896;2023-02-07T15:58:03;2.70;99.90
30678;DHT22;17437;47.188;8.896;2023-02-07T16:00:38;2.50;99.90
30678;DHT22;17437;47.188;8.896;2023-02-07T16:03:17;2.40;99.90
30678;DHT22;17437;47.188;8.896;2023-02-07T16:05:56;2.30;99.90
30678;DHT22;17437;47.188;8.896;2023-02-07T16:08:30;2.10;99.90
30678;DHT22;17437;47.188;8.896;2023-02-07T16:11:33;1.90;99.90
30678;DHT22;17437;47.188;8.896;2023-02-07T16:13:52;1.80;99.90
30678;DHT22;17437;47.188;8.896;2023-02-07T16:16:26;1.60;99.90
30678;DHT22;17437;47.188;8.896;2023-02-07T16:19:05;1.60;99.90
30678;DHT22;17437;47.188;8.896;2023-02-07T16:21:37;1.40;99.90
30678;DHT22;17437;47.188;8.896;2023-02-07T16:24:12;1.40;99.90
30678;DHT22;17437;47.188;8.896;2023-02-07T16:26:45;1.30;99.90
30678;DHT22;17437;47.188;8.896;2023-02-07T16:29:19;1.10;99.90
30678;DHT22;17437;47.188;8.896;2023-02-07T16:31:52;1.00;99.90
30678;DHT22;17437;47.188;8.896;2023-02-07T16:34:24;0.90;99.90
30678;DHT22;17437;47.188;8.896;2023-02-07T16:36:56;0.90;99.90
30678;DHT22;17437;47.188;8.896;2023-02-07T16:39:27;0.80;99.90
30678;DHT22;17437;47.188;8.896;2023-02-07T16:42:03;0.70;99.90
30678;DHT22;17437;47.188;8.896;2023-02-07T16:44:36;0.60;99.90
30678;DHT22;17437;47.188;8.896;2023-02-07T16:47:10;0.50;99.90
30678;DHT22;17437;47.188;8.896;2023-02-07T16:49:44;0.40;99.90
30678;DHT22;17437;47.188;8.896;2023-02-07T16:52:16;0.40;99.90
30678;DHT22;17437;47.188;8.896;2023-02-07T16:54:47;0.30;99.90